Airfield :
LOGIN :

Register | Disclaimer

   EN    FR    IT 

 










Legend :    VFR   Marginal VFR   IFR   Intensive IFR   Very Intensive IFR
Visi :
Ceiling :
>= 8 km
>= 3000ft
5 to 8 km
1000 to 3000 ft
1500m to 5 km
500 to 1000 ft
800 to 1500m
200 to 500 ft
< 800m
< 200 ft
Symbols :   Thunderstorms  Fog  Heavy snow  Heavy precipitations  Wind > 20 kt
SIGMETs :     Misc.  Thunderstorms  Icing  Turbulence  Mountain Waves  Volcanic Ashes






- Airport Elevation : 479 ft
- IATA code : DOL


LFRG - Deauville

CURRENT METAR :
  • 232130Z AUTO 18005KT 9999 OVC028 09/08 Q1027 TEMPO 0400 FG VV///

EXPIRED METARs :
  • 232100Z AUTO 18007KT 9999 BKN026 BKN037 09/08 Q1027 TEMPO 0400 FG VV///
  • 232030Z AUTO 18007KT 9999 BKN025 OVC040 10/09 Q1027 TEMPO 0400 FG VV///
  • 232000Z AUTO 18006KT 9999 BKN023 BKN029 OVC041 10/09 Q1027 TEMPO 0400 FG VV///
  • 231930Z AUTO 19006KT 9999 BKN023 BKN036 OVC044 10/09 Q1028 TEMPO 0400 FG VV///
  • 231900Z AUTO 20005KT 9999 SCT018 BKN025 OVC044 10/09 Q1028 TEMPO 0400 FG VV///

TAF AMD TAF LFRG
Valid from the 23 at 20:00 until the 24 at 00:00 UTC


232015Z 2320/2324 VRB05KT 9999 BKN023
BECMG 2320/2322 2000 BR
TEMPO 2322/2324 OVC002
PROB40
TEMPO 2322/2324 0400 FG VV///
ATIS : +33 2 31 65 65 36



MET'MAP, your aeronautical weather chart ! - Copyright ORBIFLY December 2007 - Disclaimer

ORBIFLY MET'MAP TEAM :

Programming & Development : Alexandra Zaïnal
Concept & original design : Baudouin d'Aumeries
Assistance for programming : Marc-Olivier Méhu
Technical & hardware support : Manuel Goepfert

Contact : metmap@orbifly.com




SOURCES & CREDITS :

   NOAA